createdAt,value
2018-06-09T00:00:51.249Z,37.10
2018-06-09T00:01:51.272Z,37.10
2018-06-09T00:02:51.294Z,36.60
2018-06-09T00:03:51.313Z,36.70
2018-06-09T00:04:51.337Z,38.00
2018-06-09T00:05:51.362Z,36.80
2018-06-09T00:06:51.383Z,36.00
2018-06-09T00:07:51.402Z,35.70
2018-06-09T00:08:51.427Z,35.50
2018-06-09T00:09:51.450Z,35.30
2018-06-09T00:10:51.471Z,34.80
2018-06-09T00:11:51.495Z,35.50
2018-06-09T00:12:51.519Z,35.30
2018-06-09T00:13:51.544Z,35.10
2018-06-09T00:14:51.567Z,34.80
2018-06-09T00:15:51.585Z,34.60
2018-06-09T00:16:51.616Z,34.90
2018-06-09T00:17:51.637Z,34.20
2018-06-09T00:18:51.657Z,34.90
2018-06-09T00:19:51.681Z,34.20
2018-06-09T00:20:51.700Z,34.40
2018-06-09T00:21:51.725Z,34.40
2018-06-09T00:22:51.766Z,35.30
2018-06-09T00:23:51.768Z,33.20
2018-06-09T00:24:51.799Z,33.60
2018-06-09T00:25:51.818Z,34.00
2018-06-09T00:26:51.841Z,33.70
2018-06-09T00:27:51.859Z,33.70
2018-06-09T00:28:51.886Z,33.80
2018-06-09T00:29:51.904Z,34.80
2018-06-09T00:30:51.927Z,34.90
2018-06-09T00:31:51.953Z,34.30
2018-06-09T00:32:51.976Z,33.00
2018-06-09T00:33:51.994Z,33.60
2018-06-09T00:34:52.020Z,34.10
2018-06-09T00:35:52.046Z,33.40
2018-06-09T00:36:52.066Z,34.70
2018-06-09T00:37:52.084Z,33.60
2018-06-09T00:38:52.109Z,33.90
2018-06-09T00:39:52.134Z,33.20
2018-06-09T00:40:52.165Z,33.50
2018-06-09T00:41:52.180Z,33.40
2018-06-09T00:42:52.202Z,33.30
2018-06-09T00:43:52.226Z,33.90
2018-06-09T00:44:52.260Z,33.00
2018-06-09T00:45:52.264Z,33.00
2018-06-09T00:46:52.293Z,34.00
2018-06-09T00:47:52.314Z,33.00
2018-06-09T00:48:52.337Z,33.20
2018-06-09T00:49:52.359Z,34.10
2018-06-09T00:50:52.380Z,32.80
2018-06-09T00:51:52.403Z,33.10
2018-06-09T00:52:52.423Z,33.20
2018-06-09T00:53:52.444Z,32.90
2018-06-09T00:54:52.468Z,32.70
2018-06-09T00:55:52.495Z,32.10
2018-06-09T00:56:52.520Z,34.10
2018-06-09T00:57:52.538Z,32.60
2018-06-09T00:58:52.569Z,32.20
2018-06-09T00:59:52.579Z,32.20
2018-06-09T01:00:52.600Z,33.90
2018-06-09T01:01:52.624Z,33.60
2018-06-09T01:02:52.654Z,33.40
2018-06-09T01:03:52.668Z,32.90
2018-06-09T01:04:52.694Z,33.40
2018-06-09T01:05:52.715Z,33.70
2018-06-09T01:06:52.740Z,33.90
2018-06-09T01:07:52.765Z,33.50
2018-06-09T01:08:52.789Z,33.50
2018-06-09T01:09:52.807Z,32.90
2018-06-09T01:10:52.836Z,32.20
2018-06-09T01:11:52.853Z,33.50
2018-06-09T01:12:52.872Z,33.50
2018-06-09T01:13:52.897Z,33.30
2018-06-09T01:14:52.919Z,32.50
2018-06-09T01:15:52.939Z,33.60
2018-06-09T01:16:52.966Z,33.50
2018-06-09T01:17:52.990Z,33.70
2018-06-09T01:18:53.008Z,31.90
2018-06-09T01:19:53.027Z,33.50
2018-06-09T01:20:53.049Z,33.90
2018-06-09T01:21:53.073Z,33.10
2018-06-09T01:22:53.095Z,33.60
2018-06-09T01:23:53.118Z,33.30
2018-06-09T01:24:53.142Z,33.10
2018-06-09T01:25:53.164Z,33.70
2018-06-09T01:26:53.182Z,33.30
2018-06-09T01:27:53.206Z,32.20
2018-06-09T01:28:53.228Z,32.70
2018-06-09T01:29:53.253Z,32.50
2018-06-09T01:30:53.277Z,33.30
2018-06-09T01:31:53.295Z,32.70
2018-06-09T01:32:53.320Z,33.10
2018-06-09T01:33:53.344Z,32.70
2018-06-09T01:34:53.365Z,32.90
2018-06-09T01:35:53.383Z,34.50
2018-06-09T01:36:53.411Z,33.80
2018-06-09T01:37:53.426Z,32.90
2018-06-09T01:38:53.453Z,33.90
2018-06-09T01:39:53.473Z,34.80
2018-06-09T01:40:53.497Z,34.20
2018-06-09T01:41:53.515Z,35.10
2018-06-09T01:42:53.538Z,35.50
2018-06-09T01:43:53.561Z,33.60
2018-06-09T01:44:53.589Z,34.60
2018-06-09T01:45:53.604Z,35.20
2018-06-09T01:46:53.623Z,35.00
2018-06-09T01:47:53.647Z,34.00
2018-06-09T03:48:30.570Z,33.40
2018-06-09T03:49:30.555Z,47.90
2018-06-09T03:51:23.476Z,53.50
2018-06-09T03:52:23.485Z,52.70
2018-06-09T03:54:16.430Z,50.70
2018-06-09T03:55:16.423Z,47.90
2018-06-09T03:57:09.343Z,48.90
2018-06-09T03:58:09.355Z,47.90
2018-06-09T04:00:02.296Z,48.20
2018-06-09T04:01:02.287Z,46.50
2018-06-09T04:02:02.305Z,47.90
2018-06-09T04:03:02.325Z,47.60
2018-06-09T04:04:02.341Z,46.20
2018-06-09T04:05:02.362Z,45.00
2018-06-09T04:06:02.381Z,44.00
2018-06-09T04:07:02.400Z,45.20
2018-06-09T04:08:02.417Z,43.40
2018-06-09T04:09:02.438Z,43.20
2018-06-09T04:10:02.456Z,41.70
2018-06-09T04:11:02.476Z,43.30
2018-06-09T04:12:02.500Z,41.30
2018-06-09T04:13:02.520Z,41.90
2018-06-09T04:14:02.534Z,42.40
2018-06-09T04:15:02.558Z,41.60
2018-06-09T04:16:02.576Z,42.20
2018-06-09T04:17:02.607Z,40.60
2018-06-09T04:18:02.620Z,39.40
2018-06-09T04:19:02.641Z,38.80
2018-06-09T04:20:02.662Z,39.30
2018-06-09T04:21:02.684Z,39.20
2018-06-09T04:22:02.703Z,38.80
2018-06-09T04:23:02.723Z,39.30
2018-06-09T04:24:02.745Z,38.10
2018-06-09T04:25:02.767Z,37.30
2018-06-09T04:26:02.786Z,38.40
2018-06-09T04:27:02.803Z,36.40
2018-06-09T04:28:02.829Z,36.90
2018-06-09T04:29:02.857Z,37.80
2018-06-09T04:30:02.867Z,36.70
2018-06-09T04:31:02.889Z,36.20
2018-06-09T04:32:02.911Z,35.90
2018-06-09T04:33:02.933Z,36.20
2018-06-09T04:34:02.954Z,36.40
2018-06-09T04:35:02.971Z,35.60
2018-06-09T04:36:02.993Z,35.10
2018-06-09T04:37:03.017Z,33.30
2018-06-09T04:38:03.037Z,35.20
2018-06-09T04:39:03.058Z,35.40
2018-06-09T04:40:03.126Z,33.80
2018-06-09T04:41:03.101Z,35.90
2018-06-09T04:42:03.123Z,34.30
2018-06-09T04:43:03.142Z,35.00
2018-06-09T04:44:03.165Z,34.30
2018-06-09T04:45:03.185Z,34.70
2018-06-09T04:46:03.230Z,34.10
2018-06-09T04:47:03.228Z,35.40
2018-06-09T04:48:03.254Z,33.50
2018-06-09T04:49:03.272Z,33.50
2018-06-09T04:50:03.298Z,33.90
2018-06-09T04:51:03.316Z,32.90
2018-06-09T04:52:03.339Z,33.20
2018-06-09T04:53:03.362Z,33.60
2018-06-09T04:54:03.382Z,33.00
2018-06-09T04:55:03.404Z,32.00
2018-06-09T04:56:03.424Z,31.80
2018-06-09T04:57:03.447Z,32.60
2018-06-09T04:58:03.465Z,33.10
2018-06-09T04:59:03.494Z,32.40
2018-06-09T05:00:03.520Z,30.90
2018-06-09T05:01:03.533Z,31.50
2018-06-09T05:02:03.557Z,31.40
2018-06-09T05:03:03.577Z,30.20
2018-06-09T05:04:03.603Z,31.90
2018-06-09T05:05:03.624Z,30.90
2018-06-09T05:06:03.646Z,31.70
2018-06-09T05:07:03.667Z,31.20
2018-06-09T05:08:03.692Z,31.90
2018-06-09T05:09:03.707Z,30.70
2018-06-09T05:10:03.737Z,30.60
2018-06-09T05:11:03.752Z,29.70
2018-06-09T05:12:03.779Z,30.70
2018-06-09T05:13:03.877Z,29.80
2018-06-09T05:14:03.820Z,29.00
2018-06-09T05:15:03.839Z,28.20
2018-06-09T05:16:03.865Z,29.10
2018-06-09T05:17:03.889Z,28.90
2018-06-09T05:18:03.912Z,28.90
2018-06-09T05:19:03.934Z,27.40
2018-06-09T05:20:03.954Z,28.40
2018-06-09T05:21:03.982Z,28.70
2018-06-09T05:22:04.000Z,28.20
2018-06-09T05:23:04.024Z,28.30
2018-06-09T05:24:04.042Z,28.30
2018-06-09T05:25:04.065Z,27.40
2018-06-09T05:26:04.093Z,28.80
2018-06-09T05:27:04.117Z,27.60
2018-06-09T05:28:04.151Z,27.80
2018-06-09T05:29:04.158Z,27.80
2018-06-09T05:30:04.186Z,27.50
2018-06-09T05:31:04.207Z,26.20
2018-06-09T05:32:04.230Z,27.20
2018-06-09T05:33:04.248Z,26.40
2018-06-09T05:34:04.271Z,26.30
2018-06-09T05:35:04.303Z,25.40
2018-06-09T05:36:04.317Z,26.10
2018-06-09T05:37:04.340Z,26.10
2018-06-09T05:38:04.362Z,25.50
2018-06-09T05:39:04.388Z,26.00
2018-06-09T05:40:04.422Z,24.80
2018-06-09T05:41:04.433Z,24.40
2018-06-09T05:42:04.464Z,24.00
2018-06-09T05:43:04.480Z,23.30
2018-06-09T05:44:04.504Z,23.70
2018-06-09T05:45:04.538Z,23.00
2018-06-09T05:46:04.558Z,22.00
2018-06-09T05:47:04.579Z,22.50
2018-06-09T05:48:04.606Z,22.10
2018-06-09T05:49:04.630Z,23.50
2018-06-09T05:50:04.656Z,21.90
2018-06-09T05:51:04.679Z,22.40
2018-06-09T05:52:04.704Z,22.40
2018-06-09T05:53:04.730Z,22.00
2018-06-09T05:54:04.753Z,22.20
2018-06-09T05:55:04.779Z,21.50
2018-06-09T05:56:04.811Z,21.80
2018-06-09T05:57:04.830Z,20.80
2018-06-09T05:58:04.859Z,21.20
2018-06-09T05:59:04.884Z,21.40
2018-06-09T06:00:04.909Z,20.80
2018-06-09T06:01:04.938Z,21.20
2018-06-09T06:02:04.961Z,21.20
2018-06-09T06:03:05.021Z,20.90
2018-06-09T06:04:05.010Z,19.70
2018-06-09T06:05:05.035Z,20.50
2018-06-09T06:06:05.066Z,20.80
2018-06-09T06:07:05.094Z,20.50
2018-06-09T06:08:05.116Z,21.00
2018-06-09T06:09:05.146Z,21.40
2018-06-09T06:10:05.170Z,20.80
2018-06-09T06:11:05.194Z,20.50
2018-06-09T06:12:05.222Z,21.10
2018-06-09T06:13:05.248Z,19.60
2018-06-09T06:14:05.272Z,20.30
2018-06-09T06:15:05.301Z,20.40
2018-06-09T06:16:05.326Z,20.00
2018-06-09T06:17:05.352Z,20.00
2018-06-09T06:18:05.379Z,19.90
2018-06-09T06:19:05.404Z,20.10
2018-06-09T06:20:05.436Z,20.10
2018-06-09T06:21:05.458Z,19.90
2018-06-09T06:22:05.487Z,19.60
2018-06-09T06:23:05.513Z,19.20
2018-06-09T06:24:05.540Z,19.90
2018-06-09T06:25:05.564Z,19.60
2018-06-09T06:26:05.591Z,19.60
2018-06-09T06:27:05.621Z,19.70
2018-06-09T06:28:05.648Z,19.10
2018-06-09T06:29:05.681Z,19.30
2018-06-09T06:30:05.698Z,19.70
2018-06-09T06:31:05.725Z,20.00
2018-06-09T06:32:05.761Z,19.60
2018-06-09T06:33:05.782Z,19.50
2018-06-09T06:34:05.808Z,20.60
2018-06-09T06:35:05.838Z,19.90
2018-06-09T06:36:05.864Z,19.00
2018-06-09T06:37:05.890Z,19.00
2018-06-09T06:38:05.918Z,19.00
2018-06-09T06:39:05.943Z,18.40
2018-06-09T06:40:05.975Z,18.50
2018-06-09T06:41:05.997Z,19.50
2018-06-09T06:42:06.029Z,18.60
2018-06-09T06:43:06.050Z,19.60
2018-06-09T06:44:06.085Z,18.50
2018-06-09T06:45:06.186Z,19.30
2018-06-09T06:46:06.129Z,19.50
2018-06-09T06:47:06.157Z,19.40
2018-06-09T06:48:06.184Z,19.50
2018-06-09T06:49:06.209Z,20.10
2018-06-09T06:50:06.237Z,19.10
2018-06-09T06:51:06.263Z,19.20
2018-06-09T06:52:06.289Z,18.90
2018-06-09T06:53:06.325Z,18.90
2018-06-09T06:54:06.343Z,19.50
2018-06-09T06:55:06.374Z,18.60
2018-06-09T06:56:06.402Z,17.40
2018-06-09T06:57:06.421Z,17.50
2018-06-09T06:58:06.455Z,18.80
2018-06-09T06:59:06.477Z,18.20
2018-06-09T07:00:06.502Z,18.60
2018-06-09T07:01:06.536Z,18.60
2018-06-09T07:02:06.583Z,17.50
2018-06-09T07:03:06.586Z,17.80
2018-06-09T07:04:06.620Z,17.50
2018-06-09T07:05:06.641Z,17.30
2018-06-09T07:06:06.665Z,18.00
2018-06-09T07:07:06.699Z,18.60
2018-06-09T07:08:06.722Z,18.10
2018-06-09T07:09:06.751Z,17.90
2018-06-09T07:10:06.782Z,17.90
2018-06-09T07:11:06.812Z,17.70
2018-06-09T07:12:06.839Z,18.20
2018-06-09T07:13:06.869Z,17.70
2018-06-09T07:14:06.893Z,17.50
2018-06-09T07:15:06.924Z,16.40
2018-06-09T07:16:06.950Z,17.80
2018-06-09T07:17:06.975Z,17.20
2018-06-09T07:18:07.014Z,17.30
2018-06-09T07:19:07.035Z,16.20
2018-06-09T07:20:07.061Z,17.50
2018-06-09T07:21:07.090Z,17.70
2018-06-09T07:22:07.160Z,16.50
2018-06-09T07:23:07.145Z,17.50
2018-06-09T07:24:07.177Z,16.10
2018-06-09T07:25:07.201Z,17.20
2018-06-09T07:26:07.231Z,17.20
2018-06-09T07:27:07.264Z,17.00
2018-06-09T07:28:07.299Z,16.80
2018-06-09T07:29:07.317Z,17.20
2018-06-09T07:30:07.348Z,16.80
2018-06-09T07:31:07.378Z,17.80
2018-06-09T07:32:07.406Z,16.50
2018-06-09T07:33:07.442Z,17.40
2018-06-09T07:34:07.464Z,17.50
2018-06-09T07:35:07.504Z,17.60
2018-06-09T07:36:07.530Z,17.60
2018-06-09T07:37:07.556Z,18.00
2018-06-09T07:38:07.583Z,17.20
2018-06-09T07:39:07.612Z,17.30
2018-06-09T07:40:07.642Z,16.60
2018-06-09T07:41:07.670Z,17.50
2018-06-09T07:42:07.710Z,17.40
2018-06-09T07:43:07.729Z,16.70
2018-06-09T07:44:07.766Z,17.30
2018-06-09T07:45:07.790Z,17.70
2018-06-09T07:46:07.822Z,17.70
2018-06-09T07:47:07.853Z,17.90
2018-06-09T07:48:07.878Z,16.50
2018-06-09T07:49:07.908Z,18.60
2018-06-09T07:50:07.942Z,17.10
2018-06-09T07:51:07.967Z,18.00
2018-06-09T07:52:08.001Z,17.40
2018-06-09T07:53:08.024Z,18.70
2018-06-09T07:54:08.065Z,17.00
2018-06-09T07:55:08.087Z,16.70
2018-06-09T07:56:08.121Z,18.00
2018-06-09T07:57:08.148Z,16.70
2018-06-09T07:58:08.172Z,16.40
2018-06-09T07:59:08.203Z,17.20
2018-06-09T08:00:08.233Z,17.60
2018-06-09T08:01:08.269Z,16.80
2018-06-09T08:02:08.292Z,16.50
2018-06-09T08:03:08.322Z,16.70
2018-06-09T08:04:08.355Z,17.10
2018-06-09T08:05:08.385Z,17.50
2018-06-09T08:06:08.421Z,17.50
2018-06-09T08:07:08.442Z,17.20
2018-06-09T08:08:08.477Z,17.50
2018-06-09T08:09:08.503Z,17.90
2018-06-09T08:10:08.533Z,18.30
2018-06-09T08:11:08.562Z,16.80
2018-06-09T08:12:08.590Z,17.40
2018-06-09T08:13:08.622Z,17.20
2018-06-09T08:14:08.651Z,17.40
2018-06-09T08:15:08.686Z,18.10
2018-06-09T08:16:08.712Z,17.70
2018-06-09T08:17:08.735Z,18.00
2018-06-09T08:18:08.768Z,17.40
2018-06-09T08:19:08.799Z,18.10
2018-06-09T08:20:08.831Z,17.90
2018-06-09T08:21:08.856Z,17.70
2018-06-09T08:22:08.883Z,18.40
2018-06-09T08:23:08.916Z,18.20
2018-06-09T08:24:08.948Z,17.90
2018-06-09T08:25:08.975Z,18.30
2018-06-09T08:26:09.001Z,18.60
2018-06-09T08:27:09.031Z,18.60
2018-06-09T08:28:09.063Z,19.00
2018-06-09T08:29:09.152Z,19.20
2018-06-09T08:30:09.115Z,18.20
2018-06-09T08:31:09.145Z,17.60
2018-06-09T08:32:09.177Z,18.50
2018-06-09T08:33:09.206Z,18.20
2018-06-09T08:34:09.234Z,18.00
2018-06-09T08:35:09.266Z,17.80
2018-06-09T08:36:09.376Z,18.80
2018-06-09T08:37:09.320Z,19.00
2018-06-09T08:38:09.350Z,17.90
2018-06-09T08:39:09.381Z,17.90
2018-06-09T08:40:09.413Z,19.20
2018-06-09T08:41:09.435Z,18.90
2018-06-09T08:42:09.464Z,18.00
2018-06-09T08:43:09.492Z,18.10
2018-06-09T08:44:09.520Z,18.30
2018-06-09T08:45:09.548Z,18.00
2018-06-09T08:46:09.579Z,18.00
2018-06-09T08:47:09.609Z,18.00
2018-06-09T08:48:09.636Z,18.30
2018-06-09T08:49:09.697Z,18.40
2018-06-09T08:50:09.717Z,18.90
2018-06-09T08:51:09.717Z,19.60
2018-06-09T08:52:09.748Z,18.30
2018-06-09T08:53:09.776Z,17.70
2018-06-09T08:54:09.804Z,17.80
2018-06-09T08:55:09.835Z,18.60
2018-06-09T08:56:09.862Z,17.60
2018-06-09T08:57:09.887Z,17.70
2018-06-09T08:58:09.922Z,18.30
2018-06-09T08:59:09.946Z,18.90
2018-06-09T09:00:09.971Z,18.40
2018-06-09T09:01:10.002Z,19.30
2018-06-09T09:02:10.025Z,18.70
2018-06-09T09:03:10.109Z,18.50
2018-06-09T09:04:10.095Z,19.10
2018-06-09T09:05:10.120Z,18.30
2018-06-09T09:06:10.138Z,18.80
2018-06-09T09:07:10.163Z,18.30
2018-06-09T09:08:10.195Z,18.80
2018-06-09T09:09:10.221Z,17.30
2018-06-09T09:10:10.249Z,18.00
2018-06-09T09:11:10.276Z,17.40
2018-06-09T09:12:10.305Z,18.20
2018-06-09T09:13:10.333Z,17.50
2018-06-09T09:14:10.358Z,17.80
2018-06-09T09:15:10.387Z,17.30
2018-06-09T09:16:10.414Z,17.90
2018-06-09T09:17:10.443Z,17.60
2018-06-09T09:18:10.471Z,16.50
2018-06-09T09:19:10.496Z,16.60
2018-06-09T09:20:10.525Z,17.20
2018-06-09T09:21:10.552Z,16.10
2018-06-09T09:22:10.578Z,16.70
2018-06-09T09:23:10.609Z,16.80
2018-06-09T09:24:10.639Z,17.10
2018-06-09T09:25:10.659Z,18.40
2018-06-09T09:26:10.690Z,17.50
2018-06-09T09:27:10.717Z,17.30
2018-06-09T09:28:10.751Z,17.90
2018-06-09T09:29:10.769Z,17.30
2018-06-09T09:30:10.800Z,16.70
2018-06-09T09:31:10.831Z,16.30
2018-06-09T09:32:10.871Z,17.50
2018-06-09T09:33:10.885Z,16.60
2018-06-09T09:34:10.905Z,15.70
2018-06-09T09:35:10.937Z,15.70
2018-06-09T09:36:10.965Z,17.20
2018-06-09T09:37:10.997Z,16.90
2018-06-09T09:38:11.029Z,17.70
2018-06-09T09:39:11.048Z,17.40
2018-06-09T09:40:11.074Z,17.50
2018-06-09T09:41:11.100Z,16.70
2018-06-09T09:42:11.128Z,17.10
2018-06-09T09:43:11.153Z,16.50
2018-06-09T09:44:11.257Z,17.80
2018-06-09T09:45:11.213Z,17.80
2018-06-09T09:46:11.236Z,18.10
2018-06-09T09:47:11.265Z,18.10
2018-06-09T09:48:11.291Z,17.50
2018-06-09T09:49:11.317Z,17.50
2018-06-09T09:50:11.345Z,18.70
2018-06-09T09:51:11.377Z,18.00
2018-06-09T09:52:11.415Z,18.00
2018-06-09T09:53:11.437Z,17.10
2018-06-09T09:54:11.468Z,17.90
2018-06-09T09:55:11.480Z,18.10
2018-06-09T09:56:11.516Z,17.20
2018-06-09T09:57:11.543Z,16.90
2018-06-09T09:58:11.566Z,17.70
2018-06-09T09:59:11.594Z,17.80
2018-06-09T10:00:11.619Z,17.20
2018-06-09T10:01:11.654Z,17.70
2018-06-09T10:02:11.673Z,17.50
2018-06-09T10:03:11.699Z,17.10
2018-06-09T10:04:11.729Z,17.70
2018-06-09T10:05:11.757Z,18.00
2018-06-09T10:06:11.785Z,18.20
2018-06-09T10:07:11.811Z,17.80
2018-06-09T10:08:11.838Z,18.00
2018-06-09T10:09:11.865Z,17.40
2018-06-09T10:10:11.888Z,16.40
2018-06-09T10:11:11.919Z,18.40
2018-06-09T10:12:11.944Z,18.30
2018-06-09T10:13:11.974Z,17.40
2018-06-09T10:14:12.006Z,18.00
2018-06-09T10:15:12.029Z,18.10
2018-06-09T10:16:12.055Z,17.60
2018-06-09T10:17:12.083Z,20.50
2018-06-09T10:18:12.115Z,20.10
2018-06-09T10:19:12.139Z,19.50
2018-06-09T10:20:12.165Z,19.00
2018-06-09T10:21:12.195Z,18.20
2018-06-09T10:22:12.219Z,18.00
2018-06-09T10:23:12.250Z,18.00
2018-06-09T10:24:12.272Z,18.70
2018-06-09T10:25:12.302Z,18.70
2018-06-09T10:26:12.330Z,18.90
2018-06-09T10:27:12.356Z,19.20
2018-06-09T10:28:12.384Z,18.40
2018-06-09T10:29:12.417Z,18.20
2018-06-09T10:30:12.434Z,19.10
2018-06-09T10:31:12.462Z,19.30
2018-06-09T10:32:12.491Z,19.40
2018-06-09T10:33:12.524Z,19.80
2018-06-09T10:34:12.549Z,20.00
2018-06-09T10:35:12.571Z,18.70
2018-06-09T10:36:12.601Z,19.70
2018-06-09T10:37:12.642Z,19.90
2018-06-09T10:38:12.655Z,19.30
2018-06-09T10:39:12.685Z,18.90
2018-06-09T10:40:12.709Z,18.90
2018-06-09T10:41:12.736Z,18.90
2018-06-09T10:42:12.781Z,19.60
2018-06-09T10:43:12.796Z,18.20
2018-06-09T10:44:12.818Z,18.40
2018-06-09T10:45:12.886Z,19.10
2018-06-09T10:46:12.880Z,19.50
2018-06-09T10:47:12.908Z,18.00
2018-06-09T10:48:12.934Z,18.40
2018-06-09T10:49:12.955Z,18.60
2018-06-09T10:50:12.980Z,19.20
2018-06-09T10:51:13.008Z,19.00
2018-06-09T10:52:13.038Z,19.60
2018-06-09T10:53:13.068Z,18.90
2018-06-09T10:54:13.093Z,19.10
2018-06-09T10:55:13.119Z,19.30
2018-06-09T10:56:13.144Z,21.40
2018-06-09T10:57:13.173Z,21.20
2018-06-09T10:58:13.198Z,21.90
2018-06-09T10:59:13.229Z,21.90
2018-06-09T11:00:13.256Z,20.30
2018-06-09T11:01:13.281Z,20.70
2018-06-09T11:02:13.312Z,19.90
2018-06-09T11:03:13.336Z,19.80
2018-06-09T11:04:13.365Z,20.20
2018-06-09T11:05:13.398Z,18.80
2018-06-09T11:06:13.420Z,18.80
2018-06-09T11:07:13.448Z,18.90
2018-06-09T11:08:13.473Z,19.70
2018-06-09T11:09:13.501Z,19.10
2018-06-09T11:10:13.532Z,20.00
2018-06-09T11:11:13.555Z,19.70
2018-06-09T11:12:13.582Z,20.50
2018-06-09T11:13:13.613Z,20.70
2018-06-09T11:14:13.634Z,19.90
2018-06-09T11:15:13.663Z,18.60
2018-06-09T11:16:13.694Z,18.90
2018-06-09T11:17:13.723Z,18.80
2018-06-09T11:18:13.805Z,19.40
2018-06-09T11:19:13.822Z,17.80
2018-06-09T11:20:13.802Z,17.90
2018-06-09T11:21:13.834Z,18.10
2018-06-09T11:22:13.873Z,17.90
2018-06-09T11:23:13.885Z,19.80
2018-06-09T11:24:13.914Z,19.20
2018-06-09T11:25:13.943Z,19.60
2018-06-09T11:26:13.967Z,19.80
2018-06-09T11:27:14.065Z,19.30
2018-06-09T11:28:14.053Z,19.10
2018-06-09T11:29:14.050Z,17.80
2018-06-09T11:30:14.074Z,19.50
2018-06-09T11:31:14.115Z,20.10
2018-06-09T11:32:14.144Z,20.40
2018-06-09T11:33:14.158Z,19.10
2018-06-09T11:34:14.200Z,18.00
2018-06-09T11:35:14.250Z,17.20
2018-06-09T11:36:14.266Z,18.80
2018-06-09T11:37:14.271Z,19.90
2018-06-09T11:38:14.297Z,18.40
2018-06-09T11:39:14.419Z,19.70
2018-06-09T11:40:14.374Z,21.00
2018-06-09T11:41:14.427Z,20.20
2018-06-09T11:42:14.464Z,19.20
2018-06-09T11:43:14.519Z,18.10
2018-06-09T11:44:14.462Z,19.40
2018-06-09T11:45:14.549Z,19.50
2018-06-09T11:46:14.521Z,20.70
2018-06-09T11:47:14.582Z,20.00
2018-06-09T11:48:14.603Z,21.70
2018-06-09T11:49:14.643Z,20.20
2018-06-09T11:50:14.648Z,18.60
2018-06-09T11:51:14.682Z,18.90
2018-06-09T11:52:14.692Z,18.10
2018-06-09T11:53:14.714Z,18.00
2018-06-09T11:54:14.763Z,18.30
2018-06-09T11:55:14.789Z,18.80
2018-06-09T11:56:14.801Z,18.20
2018-06-09T11:57:14.858Z,18.70
2018-06-09T11:58:14.860Z,19.40
2018-06-09T11:59:14.901Z,19.80
2018-06-09T12:00:14.909Z,18.90
2018-06-09T12:01:14.968Z,18.40
2018-06-09T12:02:14.987Z,18.40
2018-06-09T12:03:15.000Z,18.80
2018-06-09T12:04:15.028Z,20.50
2018-06-09T12:05:15.056Z,20.70
2018-06-09T12:06:15.150Z,20.30
2018-06-09T12:07:15.121Z,21.60
2018-06-09T12:08:15.165Z,19.70
2018-06-09T12:09:15.157Z,20.50
2018-06-09T12:10:15.202Z,21.80
2018-06-09T12:11:15.223Z,20.10
2018-06-09T12:12:15.293Z,20.00
2018-06-09T12:13:15.279Z,19.30
2018-06-09T12:14:15.335Z,17.80
2018-06-09T12:15:15.361Z,17.90
2018-06-09T12:16:15.358Z,19.40
2018-06-09T12:17:15.431Z,19.60
2018-06-09T12:18:15.417Z,19.90
2018-06-09T12:19:15.438Z,19.70
2018-06-09T12:20:15.467Z,19.80
2018-06-09T12:21:15.543Z,19.60
2018-06-09T12:22:15.529Z,18.60
2018-06-09T12:23:15.600Z,18.90
2018-06-09T12:24:15.595Z,18.30
2018-06-09T12:25:15.630Z,19.80
2018-06-09T12:26:15.632Z,18.60
2018-06-09T12:27:15.671Z,19.40
2018-06-09T12:28:15.711Z,18.90
2018-06-09T12:29:15.756Z,18.60
2018-06-09T12:30:15.746Z,18.40
2018-06-09T12:31:15.775Z,19.00
2018-06-09T12:32:15.802Z,18.80
2018-06-09T12:33:15.876Z,19.70
2018-06-09T12:34:15.854Z,18.10
2018-06-09T12:35:15.903Z,19.20
2018-06-09T12:36:15.978Z,19.60
2018-06-09T12:37:15.971Z,20.30
2018-06-09T12:38:15.969Z,18.80
2018-06-09T12:39:16.018Z,18.70
2018-06-09T12:40:16.033Z,17.80
2018-06-09T12:41:16.092Z,20.00
2018-06-09T12:42:16.109Z,20.80
2018-06-09T12:43:16.121Z,19.80
2018-06-09T12:44:16.141Z,19.00
2018-06-09T12:45:16.174Z,19.70
2018-06-09T12:46:16.217Z,18.50
2018-06-09T12:47:16.222Z,18.90
2018-06-09T12:48:16.265Z,18.50
2018-06-09T12:49:16.286Z,19.80
2018-06-09T12:50:16.309Z,19.90
2018-06-09T12:51:16.338Z,19.70
2018-06-09T12:52:16.377Z,20.60
2018-06-09T12:53:16.394Z,19.20
2018-06-09T12:54:16.421Z,20.70
2018-06-09T12:55:16.451Z,18.60
2018-06-09T12:56:16.478Z,19.90
2018-06-09T12:57:16.504Z,21.40
2018-06-09T12:58:16.530Z,19.80
2018-06-09T12:59:16.571Z,19.70
2018-06-09T13:00:16.590Z,18.60
2018-06-09T13:01:16.620Z,20.10
2018-06-09T13:02:16.644Z,19.60
2018-06-09T13:03:16.674Z,20.70
2018-06-09T13:04:16.708Z,19.70
2018-06-09T13:05:16.735Z,18.70
2018-06-09T13:06:16.756Z,20.00
2018-06-09T13:07:16.789Z,19.50
2018-06-09T13:08:16.819Z,17.90
2018-06-09T13:09:16.837Z,18.20
2018-06-09T13:10:16.866Z,17.80
2018-06-09T13:11:16.895Z,19.10
2018-06-09T13:12:16.925Z,17.80
2018-06-09T13:13:16.951Z,18.90
2018-06-09T13:14:16.976Z,18.10
2018-06-09T13:15:17.004Z,20.60
2018-06-09T13:16:17.035Z,21.90
2018-06-09T13:17:17.063Z,20.50
2018-06-09T13:18:17.096Z,20.80
2018-06-09T13:19:17.118Z,20.80
2018-06-09T13:20:17.166Z,19.60
2018-06-09T13:21:17.186Z,19.60
2018-06-09T13:22:17.205Z,20.90
2018-06-09T13:23:17.233Z,20.10
2018-06-09T13:24:17.262Z,19.30
2018-06-09T13:25:17.286Z,19.80
2018-06-09T13:26:17.318Z,19.90
2018-06-09T13:27:17.349Z,19.20
2018-06-09T13:28:17.378Z,18.50
2018-06-09T13:29:17.400Z,20.60
2018-06-09T13:30:17.438Z,20.60
2018-06-09T13:31:17.458Z,20.60
2018-06-09T13:32:17.489Z,21.30
2018-06-09T13:33:17.521Z,21.00
2018-06-09T13:34:17.541Z,19.60
2018-06-09T13:35:17.579Z,21.60
2018-06-09T13:36:17.598Z,19.90
2018-06-09T13:37:17.627Z,19.30
2018-06-09T13:38:17.649Z,20.00
2018-06-09T13:39:17.679Z,20.00
2018-06-09T13:40:17.710Z,20.50
2018-06-09T13:41:17.783Z,19.80
2018-06-09T13:42:17.767Z,19.50
2018-06-09T13:43:17.788Z,19.10
2018-06-09T13:44:17.817Z,19.90
2018-06-09T13:45:17.847Z,18.70
2018-06-09T13:46:17.873Z,19.90
2018-06-09T13:47:17.900Z,21.00
2018-06-09T13:48:17.925Z,20.80
2018-06-09T13:49:17.956Z,19.10
2018-06-09T13:50:17.980Z,19.70
2018-06-09T13:51:18.008Z,20.10
2018-06-09T13:52:18.037Z,20.50
2018-06-09T13:53:18.062Z,19.60
2018-06-09T13:54:18.108Z,19.70
2018-06-09T13:55:18.117Z,19.20
2018-06-09T13:56:18.150Z,19.70
2018-06-09T13:57:18.176Z,20.10
2018-06-09T13:58:18.208Z,18.20
2018-06-09T13:59:18.232Z,19.00
2018-06-09T14:00:18.261Z,19.90
2018-06-09T14:01:18.288Z,19.30
2018-06-09T14:02:18.314Z,18.50
2018-06-09T14:03:18.338Z,18.70
2018-06-09T14:04:18.368Z,17.90
2018-06-09T14:05:18.405Z,16.70
2018-06-09T14:06:18.422Z,17.80
2018-06-09T14:07:18.449Z,17.50
2018-06-09T14:08:18.478Z,18.20
2018-06-09T14:09:18.508Z,19.60
2018-06-09T14:10:18.539Z,18.50
2018-06-09T14:11:18.560Z,18.10
2018-06-09T14:12:18.591Z,19.30
2018-06-09T14:13:18.650Z,19.80
2018-06-09T14:14:18.645Z,19.90
2018-06-09T14:15:18.677Z,18.50
2018-06-09T14:16:18.700Z,17.80
2018-06-09T14:17:18.727Z,18.10
2018-06-09T14:18:18.754Z,18.60
2018-06-09T14:19:18.788Z,19.50
2018-06-09T14:20:18.813Z,18.50
2018-06-09T14:21:18.851Z,19.80
2018-06-09T14:22:18.868Z,19.20
2018-06-09T14:23:18.899Z,18.40
2018-06-09T14:24:18.932Z,18.20
2018-06-09T14:25:18.950Z,19.20
2018-06-09T14:26:18.981Z,20.30
2018-06-09T14:27:19.006Z,20.00
2018-06-09T14:28:19.033Z,20.50
2018-06-09T14:29:19.067Z,18.70
2018-06-09T14:30:19.089Z,19.50
2018-06-09T14:31:19.117Z,18.90
2018-06-09T14:32:19.146Z,19.30
2018-06-09T14:33:19.177Z,18.50
2018-06-09T14:34:19.199Z,19.30
2018-06-09T14:35:19.234Z,17.90
2018-06-09T14:36:19.256Z,17.90
2018-06-09T14:37:19.285Z,18.40
2018-06-09T14:38:19.314Z,18.50
2018-06-09T14:39:19.339Z,18.70
2018-06-09T14:40:19.367Z,18.80
2018-06-09T14:41:19.396Z,19.40
2018-06-09T14:42:19.429Z,18.80
2018-06-09T14:43:19.451Z,19.80
2018-06-09T14:44:19.478Z,19.10
2018-06-09T14:45:19.512Z,18.60
2018-06-09T14:46:19.535Z,19.10
2018-06-09T14:47:19.564Z,20.10
2018-06-09T14:48:19.600Z,18.70
2018-06-09T14:49:19.618Z,17.40
2018-06-09T14:50:19.645Z,16.20
2018-06-09T14:51:19.677Z,17.30
2018-06-09T14:52:19.706Z,17.20
2018-06-09T14:53:19.728Z,16.30
2018-06-09T14:54:19.757Z,15.70
2018-06-09T14:55:19.791Z,16.10
2018-06-09T14:56:19.818Z,16.10